createdAt,value
2018-09-02T00:02:44.982Z,101194.69
2018-09-02T00:05:48.278Z,101198.27
2018-09-02T00:08:51.403Z,101188.16
2018-09-02T00:11:54.567Z,101187.02
2018-09-02T00:14:57.535Z,101183.20
2018-09-02T00:18:00.487Z,101182.81
2018-09-02T00:21:17.271Z,101179.27
2018-09-02T00:24:20.396Z,101180.27
2018-09-02T00:27:23.466Z,101174.51
2018-09-02T00:30:27.005Z,101178.73
2018-09-02T00:33:29.919Z,101174.16
2018-09-02T00:36:32.776Z,101173.37
2018-09-02T00:39:35.697Z,101170.70
2018-09-02T00:42:38.630Z,101171.25
2018-09-02T00:45:41.606Z,101167.73
2018-09-02T00:48:44.507Z,101169.13
2018-09-02T00:51:48.025Z,101167.82
2018-09-02T00:54:51.168Z,101166.12
2018-09-02T00:57:54.182Z,101162.86
2018-09-02T01:00:59.953Z,101163.19
2018-09-02T01:04:04.287Z,101161.17
2018-09-02T01:07:07.257Z,101158.31
2018-09-02T01:10:10.150Z,101167.73
2018-09-02T01:13:13.110Z,101162.86
2018-09-02T01:16:16.138Z,101173.22
2018-09-02T01:19:19.251Z,101177.61
2018-09-02T01:22:22.262Z,101183.92
2018-09-02T01:25:25.250Z,101180.70
2018-09-02T01:28:28.144Z,101175.91
2018-09-02T01:31:31.065Z,101180.80
2018-09-02T01:34:40.860Z,101184.24
2018-09-02T01:37:43.857Z,101190.41
2018-09-02T01:40:46.923Z,101187.75
2018-09-02T01:43:50.005Z,101188.19
2018-09-02T01:46:53.034Z,101181.55
2018-09-02T01:49:56.037Z,101181.44
2018-09-02T01:52:58.938Z,101185.50
2018-09-02T01:56:01.902Z,101185.76
2018-09-02T01:59:05.129Z,101186.73
2018-09-02T02:02:08.015Z,101183.13
2018-09-02T02:05:10.972Z,101175.77
2018-09-02T02:08:13.920Z,101178.31
2018-09-02T02:11:16.951Z,101180.17
2018-09-02T02:14:19.934Z,101184.83
2018-09-02T02:17:22.908Z,101177.62
2018-09-02T02:20:25.852Z,101174.30
2018-09-02T02:23:28.788Z,101174.10
2018-09-02T02:26:31.705Z,101173.41
2018-09-02T02:29:34.679Z,101173.72
2018-09-02T02:32:37.605Z,101169.58
2018-09-02T02:35:40.497Z,101169.23
2018-09-02T02:38:43.388Z,101168.94
2018-09-02T02:41:46.279Z,101166.40
2018-09-02T02:44:49.215Z,101156.03
2018-09-02T02:47:52.268Z,101152.24
2018-09-02T02:50:55.234Z,101145.36
2018-09-02T02:53:58.224Z,101148.23
2018-09-02T02:57:01.159Z,101145.84
2018-09-02T03:00:04.666Z,101147.17
2018-09-02T03:03:07.573Z,101146.13
2018-09-02T03:06:10.488Z,101140.77
2018-09-02T03:09:13.442Z,101135.84
2018-09-02T03:12:16.523Z,101132.02
2018-09-02T03:15:19.514Z,101132.20
2018-09-02T03:18:22.469Z,101126.50
2018-09-02T03:21:25.431Z,101125.81
2018-09-02T03:24:28.373Z,101129.35
2018-09-02T03:27:31.267Z,101123.58
2018-09-02T03:30:34.186Z,101125.28
2018-09-02T03:33:37.178Z,101127.59
2018-09-02T03:36:40.108Z,101127.04
2018-09-02T03:39:43.011Z,101126.86
2018-09-02T03:42:45.969Z,101125.45
2018-09-02T03:45:48.826Z,101122.36
2018-09-02T03:48:52.039Z,101123.26
2018-09-02T03:51:55.242Z,101121.92
2018-09-02T03:54:58.513Z,101113.23
2018-09-02T03:58:01.520Z,101106.95
2018-09-02T04:01:04.510Z,101109.52
2018-09-02T04:04:07.445Z,101112.98
2018-09-02T04:07:10.446Z,101110.33
2018-09-02T04:10:13.716Z,101108.19
2018-09-02T04:13:16.821Z,101111.49
2018-09-02T04:16:19.809Z,101107.51
2018-09-02T04:19:22.884Z,101109.44
2018-09-02T04:22:25.916Z,101106.49
2018-09-02T04:25:29.304Z,101100.39
2018-09-02T04:28:32.256Z,101103.05
2018-09-02T04:31:35.188Z,101109.11
2018-09-02T04:34:38.125Z,101097.59
2018-09-02T04:37:41.070Z,101098.48
2018-09-02T04:40:43.962Z,101095.71
2018-09-02T04:43:47.197Z,101093.25
2018-09-02T04:46:50.221Z,101094.56
2018-09-02T04:49:53.180Z,101095.54
2018-09-02T04:52:56.106Z,101089.34
2018-09-02T04:55:59.090Z,101091.54
2018-09-02T04:59:02.028Z,101094.40
2018-09-02T05:02:04.998Z,101098.10
2018-09-02T05:05:07.978Z,101095.08
2018-09-02T05:08:10.884Z,101095.45
2018-09-02T05:11:13.798Z,101105.30
2018-09-02T05:14:16.762Z,101099.36
2018-09-02T05:17:20.939Z,101091.95
2018-09-02T05:20:23.978Z,101091.45
2018-09-02T05:23:27.117Z,101095.45
2018-09-02T05:26:30.045Z,101095.06
2018-09-02T05:29:33.105Z,101093.27
2018-09-02T05:32:36.129Z,101096.41
2018-09-02T05:35:39.027Z,101101.02
2018-09-02T05:38:41.924Z,101103.40
2018-09-02T05:41:44.898Z,101100.59
2018-09-02T05:44:47.894Z,101104.97
2018-09-02T05:47:50.885Z,101105.70
2018-09-02T05:50:53.890Z,101098.28
2018-09-02T05:53:57.620Z,101101.54
2018-09-02T05:57:00.562Z,101103.35
2018-09-02T06:00:04.121Z,101106.67
2018-09-02T06:03:06.985Z,101109.00
2018-09-02T06:06:09.946Z,101114.14
2018-09-02T06:09:12.829Z,101120.70
2018-09-02T06:12:15.761Z,101118.89
2018-09-02T06:15:18.780Z,101122.00
2018-09-02T06:18:21.742Z,101125.58
2018-09-02T06:21:24.906Z,101130.19
2018-09-02T06:24:27.902Z,101125.70
2018-09-02T06:27:30.878Z,101134.46
2018-09-02T06:30:33.850Z,101134.12
2018-09-02T06:33:36.735Z,101125.95
2018-09-02T06:36:39.644Z,101128.63
2018-09-02T06:39:42.579Z,101134.03
2018-09-02T06:42:45.512Z,101134.70
2018-09-02T06:45:48.541Z,101141.20
2018-09-02T06:48:51.542Z,101142.09
2018-09-02T06:51:54.487Z,101140.36
2018-09-02T06:54:57.509Z,101138.08
2018-09-02T06:58:00.459Z,101138.52
2018-09-02T07:01:03.379Z,101135.84
2018-09-02T07:04:06.261Z,101135.08
2018-09-02T07:07:09.259Z,101135.00
2018-09-02T07:10:12.254Z,101134.73
2018-09-02T07:13:15.395Z,101128.44
2018-09-02T07:16:25.744Z,101130.09
2018-09-02T07:19:28.727Z,101136.62
2018-09-02T07:22:31.639Z,101130.80
2018-09-02T07:25:34.796Z,101138.23
2018-09-02T07:28:37.771Z,101122.02
2018-09-02T07:31:40.690Z,101135.91
2018-09-02T07:34:43.597Z,101124.67
2018-09-02T07:37:46.844Z,101119.88
2018-09-02T07:40:49.884Z,101119.50
2018-09-02T07:43:53.167Z,101117.97
2018-09-02T07:46:56.172Z,101122.98
2018-09-02T07:49:59.261Z,101121.91
2018-09-02T07:53:02.300Z,101115.84
2018-09-02T07:56:05.375Z,101114.30
2018-09-02T07:59:08.287Z,101109.06
2018-09-02T08:02:18.124Z,101105.45
2018-09-02T08:05:21.120Z,101110.89
2018-09-02T08:08:24.230Z,101107.77
2018-09-02T08:11:27.357Z,101114.48
2018-09-02T08:14:30.408Z,101105.42
2018-09-02T08:17:33.380Z,101103.92
2018-09-02T08:20:36.393Z,101105.81
2018-09-02T08:23:39.405Z,101103.79
2018-09-02T08:26:42.446Z,101105.70
2018-09-02T08:29:45.695Z,101094.37
2018-09-02T08:32:49.076Z,101104.14
2018-09-02T08:35:52.302Z,101107.30
2018-09-02T08:38:55.714Z,101097.28
2018-09-02T08:41:58.721Z,101096.50
2018-09-02T08:45:01.624Z,101091.45
2018-09-02T08:48:04.658Z,101087.73
2018-09-02T08:51:07.633Z,101083.27
2018-09-02T08:54:10.590Z,101080.16
2018-09-02T08:57:13.491Z,101089.05
2018-09-02T09:00:17.526Z,101085.08
2018-09-02T09:03:20.792Z,101084.05
2018-09-02T09:06:24.421Z,101084.55
2018-09-02T09:09:27.486Z,101074.27
2018-09-02T09:12:30.542Z,101077.74
2018-09-02T09:15:33.500Z,101068.70
2018-09-02T09:18:36.516Z,101063.93
2018-09-02T09:21:39.519Z,101068.41
2018-09-02T09:24:42.459Z,101068.02
2018-09-02T09:27:45.597Z,101062.27
2018-09-02T09:30:48.772Z,101064.03
2018-09-02T09:33:51.925Z,101064.73
2018-09-02T09:36:55.142Z,101060.80
2018-09-02T09:39:58.296Z,101058.81
2018-09-02T09:43:02.852Z,101054.59
2018-09-02T09:46:05.909Z,101051.05
2018-09-02T09:49:09.468Z,101058.23
2018-09-02T09:52:12.459Z,101049.21
2018-09-02T09:55:15.673Z,101042.14
2018-09-02T09:58:18.781Z,101030.81
2018-09-02T10:01:21.765Z,101036.14
2018-09-02T10:04:25.005Z,101027.42
2018-09-02T10:07:28.415Z,101026.29
2018-09-02T10:10:31.449Z,101019.98
2018-09-02T10:13:34.504Z,101022.38
2018-09-02T10:16:37.587Z,101015.66
2018-09-02T10:19:40.519Z,101013.24
2018-09-02T10:22:43.450Z,100994.41
2018-09-02T10:25:46.692Z,100989.75
2018-09-02T10:28:49.732Z,100997.84
2018-09-02T10:31:52.951Z,100993.41
2018-09-02T10:34:56.289Z,100997.62
2018-09-02T10:37:59.194Z,100984.31
2018-09-02T10:41:02.174Z,100991.31
2018-09-02T10:44:05.241Z,100983.91
2018-09-02T10:47:08.275Z,100977.15
2018-09-02T10:50:11.856Z,100974.81
2018-09-02T10:53:15.162Z,100977.20
2018-09-02T10:56:19.615Z,100973.00
2018-09-02T10:59:22.767Z,100964.33
2018-09-02T11:02:25.886Z,100967.39
2018-09-02T11:05:29.038Z,100954.34
2018-09-02T11:08:31.974Z,100967.01
2018-09-02T11:11:35.007Z,100952.11
2018-09-02T11:14:37.955Z,100953.76
2018-09-02T11:17:40.868Z,100946.69
2018-09-02T11:20:43.795Z,100946.15
2018-09-02T11:23:46.770Z,100935.19
2018-09-02T11:26:49.870Z,100927.43
2018-09-02T11:29:52.910Z,100927.67
2018-09-02T11:32:55.896Z,100918.65
2018-09-02T11:35:58.807Z,100924.55
2018-09-02T11:39:04.671Z,100923.12
2018-09-02T11:42:07.667Z,100929.96
2018-09-02T11:45:10.656Z,100918.95
2018-09-02T11:48:13.663Z,100919.39
2018-09-02T11:51:16.787Z,100907.52
2018-09-02T11:54:19.909Z,100899.98
2018-09-02T11:57:23.149Z,100902.94
2018-09-02T12:00:26.392Z,100908.36
2018-09-02T12:03:29.515Z,100902.02
2018-09-02T12:06:32.670Z,100893.91
2018-09-02T12:09:35.803Z,100884.74
2018-09-02T12:12:38.897Z,100889.02
2018-09-02T12:15:42.036Z,100881.02
2018-09-02T12:18:45.071Z,100877.17
2018-09-02T12:21:48.344Z,100871.52
2018-09-02T12:24:51.381Z,100864.91
2018-09-02T12:27:54.363Z,100866.45
2018-09-02T12:30:57.357Z,100867.39
2018-09-02T12:34:00.366Z,100856.70
2018-09-02T12:37:03.452Z,100859.55
2018-09-02T12:40:06.471Z,100861.42
2018-09-02T12:43:09.492Z,100853.22
2018-09-02T12:46:12.515Z,100851.86
2018-09-02T12:49:16.147Z,100846.94
2018-09-02T12:52:19.230Z,100798.48
2018-09-02T12:55:22.441Z,100838.86
2018-09-02T12:58:25.375Z,100834.61
2018-09-02T13:01:28.421Z,100837.41
2018-09-02T13:04:31.396Z,100833.87
2018-09-02T13:07:34.725Z,100840.06
2018-09-02T13:10:37.756Z,100828.24
2018-09-02T13:13:40.678Z,100832.76
2018-09-02T13:16:43.671Z,100832.85
2018-09-02T13:19:46.739Z,100817.11
2018-09-02T13:22:49.922Z,100808.85
2018-09-02T13:25:53.036Z,100808.36
2018-09-02T13:28:56.035Z,100809.34
2018-09-02T13:31:59.450Z,100800.59
2018-09-02T13:35:02.520Z,100798.34
2018-09-02T13:38:05.633Z,100799.70
2018-09-02T13:41:08.670Z,100789.47
2018-09-02T13:44:11.745Z,100788.70
2018-09-02T13:47:15.440Z,100778.81
2018-09-02T13:50:18.563Z,100784.52
2018-09-02T13:53:21.755Z,100780.31
2018-09-02T13:56:24.699Z,100762.65
2018-09-02T13:59:27.700Z,100767.35
2018-09-02T14:02:30.794Z,100775.96
2018-09-02T14:05:33.789Z,100773.42
2018-09-02T14:08:36.929Z,100762.05
2018-09-02T14:11:40.048Z,100753.89
2018-09-02T14:14:43.138Z,100765.25
2018-09-02T14:17:46.166Z,100755.87
2018-09-02T14:20:49.197Z,100752.13
2018-09-02T14:23:52.315Z,100750.81
2018-09-02T14:26:55.413Z,100748.23
2018-09-02T14:29:58.601Z,100752.02
2018-09-02T14:33:01.638Z,100742.23
2018-09-02T14:36:05.319Z,100739.70
2018-09-02T14:39:10.581Z,100736.16
2018-09-02T14:42:13.676Z,100729.07
2018-09-02T14:45:16.735Z,100727.63
2018-09-02T14:48:19.987Z,100724.87
2018-09-02T14:51:23.086Z,100721.67
2018-09-02T14:54:26.175Z,100723.64
2018-09-02T14:57:29.343Z,100728.45
2018-09-02T15:00:32.396Z,100722.51
2018-09-02T15:03:35.433Z,100718.23
2018-09-02T15:06:38.463Z,100715.58
2018-09-02T15:09:41.482Z,100714.94
2018-09-02T15:12:44.545Z,100708.73
2018-09-02T15:15:48.646Z,100710.72
2018-09-02T15:18:51.810Z,100681.95
2018-09-02T15:21:54.826Z,100717.85
2018-09-02T15:24:57.814Z,100706.90
2018-09-02T15:28:00.842Z,100703.81
2018-09-02T15:31:03.907Z,100706.20
2018-09-02T15:34:06.946Z,100698.17
2018-09-02T15:37:09.891Z,100694.53
2018-09-02T15:40:12.881Z,100690.57
2018-09-02T15:43:18.007Z,100689.03
2018-09-02T15:46:21.182Z,100694.59
2018-09-02T15:49:24.194Z,100689.92
2018-09-02T15:52:27.309Z,100687.08
2018-09-02T15:55:30.382Z,100675.81
2018-09-02T15:58:33.427Z,100677.90
2018-09-02T16:01:36.381Z,100679.92
2018-09-02T16:04:39.404Z,100668.72
2018-09-02T16:07:42.437Z,100673.69
2018-09-02T16:10:46.199Z,100671.09
2018-09-02T16:13:49.422Z,100675.40
2018-09-02T16:16:52.655Z,100599.09
2018-09-02T16:19:55.913Z,100676.14
2018-09-02T16:22:59.044Z,100683.89
2018-09-02T16:26:02.194Z,100681.19
2018-09-02T16:29:05.316Z,100680.67
2018-09-02T16:32:08.243Z,100680.64
2018-09-02T16:35:11.166Z,100682.82
2018-09-02T16:38:14.234Z,100688.02
2018-09-02T16:41:17.325Z,100688.45
2018-09-02T16:44:20.421Z,100685.59
2018-09-02T16:47:23.569Z,100683.58
2018-09-02T16:50:26.638Z,100680.76
2018-09-02T16:53:29.607Z,100679.95
2018-09-02T16:56:32.593Z,100678.42
2018-09-02T16:59:35.665Z,100677.34
2018-09-02T17:02:38.675Z,100679.91
2018-09-02T17:05:48.483Z,100676.00
2018-09-02T17:08:51.591Z,100583.89
2018-09-02T17:11:54.678Z,100647.04
2018-09-02T17:14:57.774Z,100671.92
2018-09-02T17:18:00.960Z,100670.10
2018-09-02T17:21:04.051Z,100669.84
2018-09-02T17:24:07.362Z,100668.36
2018-09-02T17:27:10.473Z,100667.81
2018-09-02T17:30:13.650Z,100663.03
2018-09-02T17:33:23.426Z,100664.53
2018-09-02T17:36:26.556Z,100663.02
2018-09-02T17:39:29.738Z,100657.37
2018-09-02T17:42:32.863Z,100653.19
2018-09-02T17:45:36.230Z,100651.44
2018-09-02T17:48:39.450Z,100653.66
2018-09-02T17:51:42.559Z,100650.52
2018-09-02T17:54:45.825Z,100651.44
2018-09-02T17:57:48.970Z,100654.47
2018-09-02T18:00:53.809Z,100652.58
2018-09-02T18:03:57.443Z,100652.78
2018-09-02T18:07:01.237Z,100661.89
2018-09-02T18:10:04.790Z,100668.45
2018-09-02T18:13:08.200Z,100668.27
2018-09-02T18:16:12.076Z,100667.11
2018-09-02T18:19:16.759Z,100678.49
2018-09-02T18:22:19.988Z,100671.22
2018-09-02T18:25:23.446Z,100672.23
2018-09-02T18:28:34.964Z,100682.57
2018-09-02T18:31:38.335Z,100679.19
2018-09-02T18:34:41.931Z,100678.69
2018-09-02T18:37:45.842Z,100684.39
2018-09-02T18:40:49.116Z,100682.67
2018-09-02T18:43:52.356Z,100688.49
2018-09-02T18:46:56.030Z,100694.48
2018-09-02T18:49:59.732Z,100694.16
2018-09-02T18:53:03.621Z,100690.64
2018-09-02T18:56:07.346Z,100699.33
2018-09-02T18:59:11.826Z,100704.34
2018-09-02T19:02:15.775Z,100702.67
2018-09-02T19:05:19.671Z,100707.52
2018-09-02T19:08:23.322Z,100711.55
2018-09-02T19:11:26.951Z,100711.25
2018-09-02T19:14:30.702Z,100714.09
2018-09-02T19:17:34.251Z,100713.98
2018-09-02T19:20:38.765Z,100712.42
2018-09-02T19:23:43.652Z,100713.04
2018-09-02T19:26:46.955Z,100704.45
2018-09-02T19:29:50.442Z,100702.20
2018-09-02T19:32:53.735Z,100701.52
2018-09-02T19:35:57.035Z,100698.42
2018-09-02T19:39:00.715Z,100690.75
2018-09-02T19:42:04.348Z,100690.42
2018-09-02T19:45:07.941Z,100683.55
2018-09-02T19:48:11.115Z,100682.58
2018-09-02T19:51:14.348Z,100679.99
2018-09-02T19:54:17.917Z,100677.20
2018-09-02T19:57:21.447Z,100677.70
2018-09-02T20:00:24.617Z,100676.11
2018-09-02T20:03:28.108Z,100678.11
2018-09-02T20:06:32.306Z,100592.13
2018-09-02T20:09:35.914Z,100668.55
2018-09-02T20:12:40.299Z,100671.52
2018-09-02T20:15:43.973Z,100666.47
2018-09-02T20:18:47.664Z,100669.09
2018-09-02T20:21:51.461Z,100670.58
2018-09-02T20:24:55.051Z,100664.52
2018-09-02T20:27:58.867Z,100656.12
2018-09-02T20:31:02.401Z,100655.56
2018-09-02T20:34:07.110Z,100656.44
2018-09-02T20:37:12.497Z,100648.01
2018-09-02T20:40:16.187Z,100649.97
2018-09-02T20:43:20.699Z,100643.39
2018-09-02T20:46:25.200Z,100647.90
2018-09-02T20:49:29.205Z,100643.75
2018-09-02T20:52:35.354Z,100642.81
2018-09-02T20:56:42.292Z,100643.61
2018-09-02T20:59:45.534Z,100648.05
2018-09-02T21:02:48.729Z,100641.32
2018-09-02T21:05:51.898Z,100635.80
2018-09-02T21:08:55.027Z,100645.47
2018-09-02T21:11:58.678Z,100648.05
2018-09-02T21:15:03.780Z,100635.18
2018-09-02T21:18:08.416Z,100637.07
2018-09-02T21:21:11.506Z,100639.91
2018-09-02T21:24:14.814Z,100640.48
2018-09-02T21:27:17.992Z,100593.52
2018-09-02T21:30:22.977Z,100631.55
2018-09-02T21:33:26.136Z,100628.20
2018-09-02T21:36:30.152Z,100631.62
2018-09-02T21:39:37.463Z,100625.70
2018-09-02T21:42:46.968Z,100629.08
2018-09-02T21:45:50.147Z,100626.20
2018-09-02T21:48:53.480Z,100620.47
2018-09-02T21:51:56.573Z,100624.46
2018-09-02T21:54:59.687Z,100620.91
2018-09-02T21:58:03.437Z,100615.52
2018-09-02T22:01:06.626Z,100615.67
2018-09-02T22:04:09.768Z,100611.56
2018-09-02T22:07:12.925Z,100606.63
2018-09-02T22:10:15.998Z,100607.53
2018-09-02T22:13:19.168Z,100609.16
2018-09-02T22:16:22.482Z,100604.27
2018-09-02T22:19:25.543Z,100606.41
2018-09-02T22:22:28.928Z,100602.87
2018-09-02T22:25:32.046Z,100595.98
2018-09-02T22:28:35.248Z,100590.61
2018-09-02T22:31:38.430Z,100591.37
2018-09-02T22:34:41.576Z,100584.64
2018-09-02T22:37:44.653Z,100583.55
2018-09-02T22:40:47.819Z,100585.84
2018-09-02T22:43:51.248Z,100585.38
2018-09-02T22:46:54.364Z,100589.11
2018-09-02T22:49:57.703Z,100585.48
2018-09-02T22:53:00.863Z,100584.42
2018-09-02T22:56:03.905Z,100581.67
2018-09-02T22:59:07.074Z,100582.39
2018-09-02T23:02:10.268Z,100575.34
2018-09-02T23:05:13.373Z,100575.60
2018-09-02T23:08:16.477Z,100570.30
2018-09-02T23:11:19.649Z,100554.64
2018-09-02T23:14:22.781Z,100566.02
2018-09-02T23:17:25.848Z,100562.59
2018-09-02T23:20:28.846Z,100562.02
2018-09-02T23:23:31.984Z,100551.81
2018-09-02T23:26:35.155Z,100559.48
2018-09-02T23:29:38.269Z,100558.45
2018-09-02T23:32:48.179Z,100545.89
2018-09-02T23:35:51.503Z,100536.02
2018-09-02T23:38:54.520Z,100537.21
2018-09-02T23:41:57.593Z,100542.11
2018-09-02T23:45:00.703Z,100534.85
2018-09-02T23:48:03.880Z,100540.77
2018-09-02T23:51:07.191Z,100530.97
2018-09-02T23:54:10.329Z,100520.73
2018-09-02T23:57:13.408Z,100521.71
